<?xml version="1.0" encoding="UTF-8" standalone="no" ?>
<gpx xmlns="http://www.topografix.com/GPX/1/1" xmlns:xsi="http://www.w3.org/2001/XMLSchema-instance" xsi:schemaLocation="http://www.topografix.com/GPX/1/1 http://www.topografix.com/GPX/1/1/gpx.xsd" version="1.1" creator="VisuGPX - https://www.visugpx.com">
  <metadata>
    <name>luzech 6 descentes</name>
    <desc><![CDATA[parcours typé enduro avec de belles descentes]]></desc>
  </metadata>
  <trk>
    <name><![CDATA[2014-04-01-08-18-57]]></name>
    <trkseg>
      <trkpt lat="44.45185" lon="1.3098">
        <ele>253.608</ele>
        <time>2014-04-01T12:20:32Z</time>
      </trkpt>
      <trkpt lat="44.45184" lon="1.30973">
        <ele>253.048</ele>
        <time>2014-04-01T12:20:34Z</time>
      </trkpt>
      <trkpt lat="44.45178" lon="1.30957">
        <ele>251.977</ele>
        <time>2014-04-01T12:20:37Z</time>
      </trkpt>
      <trkpt lat="44.45164" lon="1.30939">
        <ele>248.566</ele>
        <time>2014-04-01T12:20:41Z</time>
      </trkpt>
      <trkpt lat="44.45164" lon="1.30925">
        <ele>244.406</ele>
        <time>2014-04-01T12:20:46Z</time>
      </trkpt>
      <trkpt lat="44.45158" lon="1.30914">
        <ele>242.546</ele>
        <time>2014-04-01T12:20:49Z</time>
      </trkpt>
      <trkpt lat="44.4515" lon="1.30896">
        <ele>239.136</ele>
        <time>2014-04-01T12:20:52Z</time>
      </trkpt>
      <trkpt lat="44.45148" lon="1.30889">
        <ele>237.774</ele>
        <time>2014-04-01T12:20:53Z</time>
      </trkpt>
      <trkpt lat="44.45129" lon="1.30836">
        <ele>227.843</ele>
        <time>2014-04-01T12:20:59Z</time>
      </trkpt>
      <trkpt lat="44.45128" lon="1.30827">
        <ele>226.332</ele>
        <time>2014-04-01T12:21:00Z</time>
      </trkpt>
      <trkpt lat="44.45126" lon="1.30808">
        <ele>223.033</ele>
        <time>2014-04-01T12:21:02Z</time>
      </trkpt>
      <trkpt lat="44.45131" lon="1.30778">
        <ele>218.452</ele>
        <time>2014-04-01T12:21:06Z</time>
      </trkpt>
      <trkpt lat="44.45134" lon="1.30753">
        <ele>215.084</ele>
        <time>2014-04-01T12:21:09Z</time>
      </trkpt>
      <trkpt lat="44.45141" lon="1.30728">
        <ele>212.213</ele>
        <time>2014-04-01T12:21:12Z</time>
      </trkpt>
      <trkpt lat="44.45144" lon="1.3072">
        <ele>211.123</ele>
        <time>2014-04-01T12:21:13Z</time>
      </trkpt>
      <trkpt lat="44.45151" lon="1.30704">
        <ele>208.954</ele>
        <time>2014-04-01T12:21:15Z</time>
      </trkpt>
      <trkpt lat="44.45156" lon="1.30677">
        <ele>205.172</ele>
        <time>2014-04-01T12:21:18Z</time>
      </trkpt>
      <trkpt lat="44.45151" lon="1.30637">
        <ele>199.211</ele>
        <time>2014-04-01T12:21:22Z</time>
      </trkpt>
      <trkpt lat="44.45149" lon="1.30618">
        <ele>196.291</ele>
        <time>2014-04-01T12:21:24Z</time>
      </trkpt>
      <trkpt lat="44.45144" lon="1.30597">
        <ele>194.011</ele>
        <time>2014-04-01T12:21:26Z</time>
      </trkpt>
      <trkpt lat="44.45139" lon="1.30575">
        <ele>190.881</ele>
        <time>2014-04-01T12:21:28Z</time>
      </trkpt>
      <trkpt lat="44.45128" lon="1.30533">
        <ele>185.13</ele>
        <time>2014-04-01T12:21:32Z</time>
      </trkpt>
      <trkpt lat="44.45124" lon="1.30514">
        <ele>181.601</ele>
        <time>2014-04-01T12:21:34Z</time>
      </trkpt>
      <trkpt lat="44.45115" lon="1.3048">
        <ele>174.999</ele>
        <time>2014-04-01T12:21:38Z</time>
      </trkpt>
      <trkpt lat="44.45111" lon="1.30462">
        <ele>170.919</ele>
        <time>2014-04-01T12:21:41Z</time>
      </trkpt>
      <trkpt lat="44.451" lon="1.30452">
        <ele>166.629</ele>
        <time>2014-04-01T12:21:44Z</time>
      </trkpt>
      <trkpt lat="44.45078" lon="1.30427">
        <ele>162.621</ele>
        <time>2014-04-01T12:21:48Z</time>
      </trkpt>
      <trkpt lat="44.45058" lon="1.30386">
        <ele>156.581</ele>
        <time>2014-04-01T12:21:53Z</time>
      </trkpt>
      <trkpt lat="44.45057" lon="1.30368">
        <ele>153.432</ele>
        <time>2014-04-01T12:21:55Z</time>
      </trkpt>
      <trkpt lat="44.45062" lon="1.30327">
        <ele>146.21</ele>
        <time>2014-04-01T12:22:00Z</time>
      </trkpt>
      <trkpt lat="44.45069" lon="1.30285">
        <ele>139.791</ele>
        <time>2014-04-01T12:22:05Z</time>
      </trkpt>
      <trkpt lat="44.45069" lon="1.30257">
        <ele>135.832</ele>
        <time>2014-04-01T12:22:08Z</time>
      </trkpt>
      <trkpt lat="44.45068" lon="1.30235">
        <ele>132.262</ele>
        <time>2014-04-01T12:22:11Z</time>
      </trkpt>
      <trkpt lat="44.45073" lon="1.30212">
        <ele>127.762</ele>
        <time>2014-04-01T12:22:16Z</time>
      </trkpt>
      <trkpt lat="44.45066" lon="1.30193">
        <ele>125.251</ele>
        <time>2014-04-01T12:22:19Z</time>
      </trkpt>
      <trkpt lat="44.45063" lon="1.3017">
        <ele>122.082</ele>
        <time>2014-04-01T12:22:22Z</time>
      </trkpt>
      <trkpt lat="44.45063" lon="1.30125">
        <ele>117.202</ele>
        <time>2014-04-01T12:22:27Z</time>
      </trkpt>
      <trkpt lat="44.45063" lon="1.30108">
        <ele>116.811</ele>
        <time>2014-04-01T12:22:30Z</time>
      </trkpt>
      <trkpt lat="44.45063" lon="1.30106">
        <ele>117.149</ele>
        <time>2014-04-01T12:22:31Z</time>
      </trkpt>
      <trkpt lat="44.45068" lon="1.30103">
        <ele>117.144</ele>
        <time>2014-04-01T12:22:35Z</time>
      </trkpt>
      <trkpt lat="44.45064" lon="1.30105">
        <ele>117.675</ele>
        <time>2014-04-01T12:22:37Z</time>
      </trkpt>
      <trkpt lat="44.45046" lon="1.30107">
        <ele>119.946</ele>
        <time>2014-04-01T12:22:43Z</time>
      </trkpt>
      <trkpt lat="44.45019" lon="1.30107">
        <ele>121.117</ele>
        <time>2014-04-01T12:22:50Z</time>
      </trkpt>
      <trkpt lat="44.44984" lon="1.30094">
        <ele>121.997</ele>
        <time>2014-04-01T12:22:59Z</time>
      </trkpt>
      <trkpt lat="44.44964" lon="1.3008">
        <ele>122.147</ele>
        <time>2014-04-01T12:23:05Z</time>
      </trkpt>
      <trkpt lat="44.44946" lon="1.30062">
        <ele>123.117</ele>
        <time>2014-04-01T12:23:11Z</time>
      </trkpt>
      <trkpt lat="44.44934" lon="1.30044">
        <ele>124.537</ele>
        <time>2014-04-01T12:23:17Z</time>
      </trkpt>
      <trkpt lat="44.44932" lon="1.30042">
        <ele>124.426</ele>
        <time>2014-04-01T12:23:18Z</time>
      </trkpt>
      <trkpt lat="44.44931" lon="1.30038">
        <ele>125.348</ele>
        <time>2014-04-01T12:23:22Z</time>
      </trkpt>
    </trkseg>
  </trk>
</gpx>